Date,TemperatureHighF,TemperatureAvgF,TemperatureLowF,DewpointHighF,DewpointAvgF,DewpointLowF,HumidityHigh,HumidityAvg,HumidityLow,PressureMaxIn,PressureMinIn,WindSpeedMaxMPH,WindSpeedAvgMPH,GustSpeedMaxMPH,PrecipitationSumIn
2013-1-9,44,43,42,36,36,35,76,75,73,30.11,29.85,4,1,6,0.00
2013-1-10,56,45,40,38,34,31,80,67,43,30.22,29.84,7,1,12,0.01
2013-1-11,53,42,39,41,33,29,89,70,57,30.27,29.90,12,2,19,0.00
2013-1-12,56,43,36,37,31,18,92,65,25,30.00,29.92,4,0,6,0.00
2013-1-13,58,43,35,35,25,14,78,52,24,30.01,29.95,4,0,7,0.00
2013-1-14,58,44,36,34,21,12,73,42,21,30.14,29.97,4,1,11,0.00
2013-1-15,63,46,38,37,31,23,85,59,25,30.21,30.14,7,0,8,0.00
2013-1-16,65,47,36,38,34,32,91,65,33,30.17,30.01,4,0,9,0.00
2013-1-17,70,52,42,40,34,28,77,53,23,30.02,29.94,4,1,11,0.00
2013-1-18,72,56,44,40,34,28,76,47,21,29.99,29.92,5,1,10,0.00
2013-1-19,72,56,46,38,33,24,67,43,23,30.01,29.94,5,1,8,0.00
2013-1-20,65,55,47,37,32,-8,64,44,25,29.99,29.91,98,2,98,0.11
2013-1-21,72,54,44,40,36,30,74,52,31,29.95,29.87,8,1,11,0.00
2013-1-22,71,55,46,43,39,28,75,56,31,29.89,29.79,5,1,9,0.00
2013-1-23,58,53,49,51,43,25,99,71,28,29.87,29.75,4,0,9,0.15
2013-1-24,61,53,49,52,50,48,99,89,72,29.97,29.85,4,0,8,0.00
2013-1-25,70,57,50,55,51,48,98,83,57,29.97,29.78,6,1,10,0.00
2013-1-26,56,50,46,49,44,40,99,83,63,29.87,29.80,14,4,26,0.00
2013-1-27,59,48,41,42,38,33,83,70,45,29.95,29.84,11,2,17,0.00
2013-1-28,60,48,43,44,40,36,91,73,51,30.06,29.92,8,1,15,0.00
2013-1-29,62,50,43,46,42,39,86,75,49,30.11,30.04,8,1,14,0.00
2013-1-30,70,55,47,49,43,38,88,65,35,30.11,30.03,3,0,6,0.00
2013-1-31,70,55,44,48,44,41,92,69,43,30.05,29.95,4,0,8,0.00
2013-2-1,74,55,47,48,45,42,98,69,35,30.00,29.91,5,1,9,0.00
2013-2-2,60,49,46,50,46,43,99,91,67,30.06,29.99,8,2,12,0.00
2013-2-3,60,49,44,46,43,40,97,81,56,30.02,29.93,7,2,11,0.00
2013-2-4,60,47,45,49,45,42,99,92,65,29.95,29.86,10,2,17,0.00
2013-2-5,55,48,45,47,44,40,94,86,72,29.94,29.84,11,4,22,0.00
2013-2-6,58,48,42,47,42,38,90,80,54,29.97,29.91,10,2,17,0.00
2013-2-7,56,47,41,48,42,36,94,84,61,29.95,29.78,8,2,17,0.28
2013-2-8,54,45,38,43,39,26,95,80,45,29.80,29.72,10,2,17,0.17
2013-2-9,63,49,42,40,31,20,83,52,22,29.88,29.78,5,1,10,0.00
2013-2-10,46,43,41,42,39,29,92,86,51,29.88,29.85,3,0,6,0.00
2013-2-17,61,50,43,47,44,41,98,80,54,29.83,29.78,8,2,12,0.00
2013-2-18,54,46,44,44,40,35,96,80,64,29.80,29.73,12,5,24,0.00
2013-2-19,48,43,39,42,38,32,93,82,64,29.73,29.52,11,4,24,0.30
2013-2-20,58,43,38,44,36,30,83,75,49,29.85,29.63,11,2,18,0.00
2013-2-21,61,48,40,43,38,30,84,69,35,29.95,29.83,8,1,16,0.00
2013-2-22,61,49,43,46,41,37,89,76,46,30.03,29.93,11,2,23,0.00
2013-2-23,60,49,43,46,39,28,96,71,45,30.02,29.95,11,2,17,0.00
2013-2-24,68,50,44,42,31,20,93,52,20,30.01,29.96,11,2,14,0.00
2013-2-25,60,49,42,47,43,40,97,81,57,30.03,29.96,8,2,15,0.00
2013-2-26,68,50,42,43,36,21,87,63,19,29.99,29.93,8,1,13,0.00
2013-2-27,68,50,44,49,40,36,97,71,40,30.13,29.98,8,1,14,0.00
2013-2-28,63,51,46,52,48,45,99,90,66,30.22,30.13,8,1,14,0.00
2013-3-1,78,57,49,53,48,44,97,76,37,30.19,30.03,7,0,11,0.00
2013-3-2,71,56,47,51,48,46,99,76,46,30.02,29.88,7,1,14,0.00
2013-3-3,58,48,45,50,46,42,99,92,71,29.90,29.84,16,5,22,0.00
2013-3-4,57,46,43,45,42,39,97,86,62,29.93,29.84,14,3,24,0.00
2013-3-5,58,48,42,44,40,38,89,77,58,29.85,29.65,17,3,29,0.12
2013-3-6,56,48,44,46,43,40,93,81,61,29.85,29.65,18,4,32,0.09
2013-3-7,58,47,43,44,41,35,93,81,52,29.78,29.67,5,1,9,0.05
2013-3-8,54,47,42,45,42,37,94,83,71,29.84,29.63,18,4,38,0.00
2013-3-9,52,44,41,42,40,38,89,85,66,30.03,29.84,5,0,11,0.00
2013-3-11,75,54,43,50,44,35,99,75,26,30.02,29.91,8,0,12,0.00
2013-3-12,70,52,44,55,47,44,99,85,47,29.94,29.88,7,1,11,0.00
2013-3-13,82,57,44,54,48,43,99,77,33,29.94,29.87,2,0,7,0.00
2013-3-14,59,47,45,51,45,44,99,93,70,29.96,29.88,9,0,14,0.00
2013-3-15,71,52,46,52,47,44,97,84,45,29.92,29.84,8,1,17,0.00
2013-3-16,66,51,45,52,46,43,99,84,55,29.91,29.82,10,2,20,0.00
2013-3-17,66,51,46,46,43,40,88,74,43,29.93,29.85,8,0,18,0.00
2013-3-18,62,49,44,46,44,41,95,82,54,29.92,29.84,11,0,19,0.00
2013-3-19,64,51,45,48,43,39,91,77,46,29.92,29.84,4,0,15,0.07
2013-3-20,57,50,46,50,48,40,96,90,62,29.93,29.84,10,0,15,0.15
2013-3-21,61,49,40,46,42,37,97,78,53,29.93,29.82,11,0,17,0.00
2013-3-22,64,52,44,42,37,22,86,61,22,29.90,29.82,3,0,11,0.00
2013-3-23,54,48,45,42,35,31,86,63,46,29.91,29.85,0,0,0,0.00
2013-3-24,63,48,44,47,44,42,97,86,54,29.88,29.79,8,0,12,0.00
2013-3-25,56,47,44,45,42,40,92,84,64,29.82,29.71,12,2,21,0.00
2013-3-26,47,45,45,43,42,41,89,87,84,29.80,29.75,11,1,17,0.00
2013-3-27,52,51,51,50,49,48,94,93,86,29.81,29.77,7,0,17,0.00
2013-3-28,64,54,50,55,50,47,95,88,67,29.88,29.79,4,0,11,0.02
2013-3-29,78,55,48,54,49,45,95,80,41,29.88,29.83,3,0,11,0.00
2013-3-30,69,54,49,56,50,46,99,87,50,29.86,29.77,8,0,15,0.09
2013-3-31,65,56,51,54,50,48,94,82,62,29.86,29.79,7,0,16,0.11
2013-4-1,62,54,51,54,50,49,93,88,70,29.94,29.84,7,0,15,0.53
2013-4-2,60,50,46,51,47,44,94,88,71,29.98,29.89,8,1,16,0.00
2013-4-3,78,52,46,56,47,40,98,86,28,29.93,29.80,9,0,17,0.00
2013-4-4,60,52,47,55,51,46,99,94,82,29.91,29.78,9,1,21,0.41
2013-4-5,62,53,49,55,51,47,99,93,71,29.98,29.90,8,0,16,0.02
2013-4-6,55,52,49,54,50,46,97,93,88,29.98,29.93,11,1,17,0.02
2013-4-7,60,52,48,53,48,44,94,89,77,29.96,29.65,17,2,33,0.08
2013-4-8,62,51,44,45,40,34,91,67,46,29.82,29.59,11,0,29,0.00
2013-4-9,72,60,50,46,39,29,69,47,28,29.90,29.82,4,0,7,0.00
2013-4-10,75,60,48,51,46,39,95,62,38,29.98,29.87,10,0,17,0.00
2013-4-11,69,50,46,49,45,43,96,85,44,29.88,29.67,8,0,17,0.00
2013-4-12,55,48,45,47,44,42,95,89,74,29.73,29.67,2,0,10,0.00
2013-4-13,61,50,45,48,44,40,90,80,62,29.71,29.65,11,0,24,0.00
2013-4-14,60,48,43,43,39,37,83,72,52,29.73,29.68,4,0,13,0.00
2013-4-15,62,51,41,48,42,36,91,71,58,30.00,29.92,17,1,35,0.01
2013-4-16,63,51,42,42,37,30,77,60,39,30.19,29.99,9,0,17,0.00
2013-4-17,56,52,50,32,30,27,48,44,34,30.27,30.19,1,0,4,0.00
2013-4-18,73,56,47,44,37,29,84,53,21,30.30,30.24,2,0,8,0.00
2013-4-19,71,55,45,52,46,43,94,73,45,30.26,30.12,8,0,11,0.00
2013-4-20,74,55,46,50,45,39,92,73,32,30.15,30.06,7,0,9,0.00
2013-4-21,79,61,46,51,45,37,92,61,29,30.09,30.00,3,0,8,0.00
2013-4-22,89,67,53,52,44,34,82,45,17,30.03,29.94,5,0,11,0.00
2013-4-23,77,61,51,49,37,20,82,45,14,30.01,29.92,6,0,16,0.00
2013-4-24,55,47,45,48,45,44,97,93,76,30.00,29.88,13,1,21,0.00
2013-4-25,61,52,49,50,48,45,96,84,65,30.17,29.99,11,1,20,0.00
2013-4-26,59,49,46,49,45,44,91,85,67,30.26,30.14,11,0,21,0.00
2013-4-27,62,48,45,49,45,43,96,89,66,30.26,30.12,10,1,17,0.00
2013-4-28,70,56,46,50,46,44,94,74,40,30.12,29.95,8,0,14,0.00
2013-4-29,77,62,50,52,49,45,85,64,41,29.97,29.85,5,0,12,0.00
2013-4-30,51,49,48,46,45,44,88,85,78,29.88,29.85,0,0,4,0.00
2013-5-1,78,63,52,63,29,18,97,32,13,30.13,29.91,2,0,6,0.00
2013-5-2,74,63,57,47,37,24,59,39,16,30.19,30.13,2,0,5,0.00
2013-5-3,83,66,53,51,38,22,80,38,16,30.14,29.88,7,0,13,0.02
2013-5-4,69,60,51,53,46,30,91,63,30,29.88,29.65,11,0,25,0.00
2013-5-5,68,58,52,51,47,45,79,67,51,29.87,29.69,12,0,24,0.00
2013-5-6,69,58,53,52,49,45,87,72,51,30.02,29.87,4,0,13,0.00
2013-5-7,55,54,54,51,50,50,88,86,84,30.03,30.00,2,0,6,0.00
2013-5-8,57,51,49,50,48,46,98,91,76,30.18,30.08,11,2,19,0.00
2013-5-9,56,50,49,49,47,46,92,88,75,30.21,30.13,14,2,24,0.00
2013-5-10,53,50,48,50,48,46,97,94,87,30.22,30.15,14,2,23,0.01
2013-5-11,69,54,48,59,49,46,99,87,58,30.19,30.11,9,0,15,0.00
2013-5-12,64,55,50,55,51,48,97,87,65,30.20,30.09,8,0,15,0.00
2013-5-13,60,52,50,54,49,47,95,91,74,30.14,30.01,9,1,17,0.00
2013-5-14,61,54,49,50,47,44,93,78,65,30.05,29.97,14,2,27,0.00
2013-5-15,59,51,48,49,46,44,92,84,67,30.10,30.03,16,4,31,0.00
2013-5-16,55,52,51,52,50,49,93,93,92,30.07,30.03,8,1,16,0.01